Dies, Texas
Current Conditions -  °F | °C
As of 6:35 AM on Saturday 20 Dec 2014 (Local Time) from KJAS Reporting Station
Overcast Overcast  
Wind Chill: 44°   Ceiling: 400
Heat Index: 47°   Visibility: 7mi
Dew Point: 46°   Wind: 7mph
Humidity: 95%   Direction: 10°N
Pressure: 30.2"   Gusts: NA
Location:  30.7643°N, 94.4448°W
Report Text: KJAS 201235Z AUTO 01006KT 7SM OVC004 09/08 A3020 RMK AO2 T00850078
Loading
Personal Weather Stations






























Interactive Weather Map New forecast layout! Learn more

10-Day Weather Forecast

Advertisements
Track Severe Weather on mobile